createdAt,value
2023-04-25T00:00:51.296Z,100.00
2023-04-25T00:03:19.821Z,100.00
2023-04-25T00:05:46.672Z,100.00
2023-04-25T00:08:13.364Z,100.00
2023-04-25T00:10:39.929Z,100.00
2023-04-25T00:13:07.290Z,100.00
2023-04-25T00:15:33.866Z,100.00
2023-04-25T00:18:00.771Z,100.00
2023-04-25T00:20:27.507Z,100.00
2023-04-25T00:22:54.529Z,100.00
2023-04-25T00:25:21.252Z,100.00
2023-04-25T00:27:47.885Z,100.00
2023-04-25T00:30:15.047Z,100.00
2023-04-25T00:32:42.071Z,100.00
2023-04-25T00:35:08.702Z,100.00
2023-04-25T00:37:35.251Z,100.00
2023-04-25T00:40:01.802Z,100.00
2023-04-25T00:42:28.463Z,100.00
2023-04-25T00:44:55.390Z,100.00
2023-04-25T00:47:21.983Z,100.00
2023-04-25T00:49:48.619Z,100.00
2023-04-25T00:52:15.580Z,100.00
2023-04-25T00:54:42.179Z,100.00
2023-04-25T00:57:08.718Z,100.00
2023-04-25T00:59:35.574Z,100.00
2023-04-25T01:02:02.651Z,100.00
2023-04-25T01:04:29.909Z,100.00
2023-04-25T01:06:56.881Z,100.00
2023-04-25T01:09:23.533Z,100.00
2023-04-25T01:11:50.475Z,100.00
2023-04-25T01:14:17.258Z,100.00
2023-04-25T01:16:43.957Z,100.00
2023-04-25T01:19:14.125Z,100.00
2023-04-25T01:21:41.086Z,100.00
2023-04-25T01:24:07.874Z,100.00
2023-04-25T01:26:34.669Z,100.00
2023-04-25T01:29:01.470Z,100.00
2023-04-25T01:31:28.724Z,100.00
2023-04-25T01:33:55.523Z,100.00
2023-04-25T01:36:22.081Z,100.00
2023-04-25T01:38:48.665Z,100.00
2023-04-25T01:41:15.716Z,100.00
2023-04-25T01:43:42.372Z,100.00
2023-04-25T01:46:08.964Z,100.00
2023-04-25T01:48:35.670Z,100.00
2023-04-25T01:51:02.203Z,100.00
2023-04-25T01:53:29.569Z,100.00
2023-04-25T01:55:56.749Z,100.00
2023-04-25T01:58:25.111Z,100.00
2023-04-25T02:01:05.773Z,100.00
2023-04-25T02:03:36.936Z,100.00
2023-04-25T02:06:06.419Z,100.00
2023-04-25T02:08:35.933Z,100.00
2023-04-25T02:11:04.357Z,100.00
2023-04-25T02:13:37.985Z,100.00
2023-04-25T02:16:17.169Z,100.00
2023-04-25T02:18:44.119Z,100.00
2023-04-25T02:21:11.012Z,100.00
2023-04-25T02:23:37.762Z,100.00
2023-04-25T02:26:04.343Z,100.00
2023-04-25T02:28:31.734Z,100.00
2023-04-25T02:30:58.546Z,100.00
2023-04-25T02:33:25.511Z,100.00
2023-04-25T02:35:52.182Z,100.00
2023-04-25T02:38:22.188Z,100.00
2023-04-25T02:40:48.804Z,100.00
2023-04-25T02:43:15.549Z,100.00
2023-04-25T02:45:42.084Z,100.00
2023-04-25T02:48:08.842Z,100.00
2023-04-25T02:50:35.601Z,100.00
2023-04-25T02:53:02.158Z,100.00
2023-04-25T02:55:34.104Z,100.00
2023-04-25T02:58:01.559Z,100.00
2023-04-25T03:00:36.945Z,100.00
2023-04-25T03:03:03.696Z,100.00
2023-04-25T03:05:30.690Z,100.00
2023-04-25T03:07:57.237Z,100.00
2023-04-25T03:10:24.107Z,100.00
2023-04-25T03:12:51.093Z,100.00
2023-04-25T03:15:17.715Z,100.00
2023-04-25T03:17:44.352Z,100.00
2023-04-25T03:20:11.465Z,100.00
2023-04-25T03:22:38.313Z,100.00
2023-04-25T03:25:05.979Z,100.00
2023-04-25T03:27:32.548Z,100.00
2023-04-25T03:29:59.225Z,100.00
2023-04-25T03:32:26.078Z,100.00
2023-04-25T03:34:52.718Z,100.00
2023-04-25T03:37:19.377Z,100.00
2023-04-25T03:39:46.137Z,100.00
2023-04-25T03:42:12.882Z,100.00
2023-04-25T03:44:39.457Z,100.00
2023-04-25T03:47:06.210Z,100.00
2023-04-25T03:49:33.789Z,100.00
2023-04-25T03:52:02.044Z,100.00
2023-04-25T03:54:31.624Z,100.00
2023-04-25T03:57:03.966Z,100.00
2023-04-25T03:59:32.307Z,100.00
2023-04-25T04:01:58.923Z,100.00
2023-04-25T04:04:26.480Z,100.00
2023-04-25T04:06:55.570Z,100.00
2023-04-25T04:09:26.176Z,100.00
2023-04-25T04:11:53.679Z,100.00
2023-04-25T04:14:20.621Z,100.00
2023-04-25T04:16:47.670Z,100.00
2023-04-25T04:19:14.360Z,100.00
2023-04-25T04:21:45.160Z,100.00
2023-04-25T04:24:12.285Z,100.00
2023-04-25T04:26:51.821Z,100.00
2023-04-25T04:29:36.016Z,100.00
2023-04-25T04:32:10.028Z,100.00
2023-04-25T04:34:37.067Z,100.00
2023-04-25T04:37:03.929Z,100.00
2023-04-25T04:39:30.737Z,100.00
2023-04-25T04:42:09.633Z,100.00
2023-04-25T04:45:05.518Z,100.00
2023-04-25T04:47:51.091Z,100.00
2023-04-25T04:50:17.803Z,100.00
2023-04-25T04:53:02.942Z,100.00
2023-04-25T04:55:48.119Z,100.00
2023-04-25T04:58:50.139Z,100.00
2023-04-25T05:01:38.674Z,100.00
2023-04-25T05:04:34.703Z,100.00
2023-04-25T05:07:27.801Z,100.00
2023-04-25T05:10:12.933Z,100.00
2023-04-25T05:12:58.022Z,100.00
2023-04-25T05:15:44.528Z,100.00
2023-04-25T05:18:23.590Z,100.00
2023-04-25T05:21:14.733Z,100.00
2023-04-25T05:23:48.112Z,100.00
2023-04-25T05:26:33.729Z,100.00
2023-04-25T05:29:18.697Z,100.00
2023-04-25T05:32:00.384Z,100.00
2023-04-25T05:34:27.061Z,100.00
2023-04-25T05:36:56.936Z,100.00
2023-04-25T05:39:24.581Z,100.00
2023-04-25T05:42:14.330Z,100.00
2023-04-25T05:44:46.633Z,100.00
2023-04-25T05:47:36.961Z,100.00
2023-04-25T05:50:08.346Z,100.00
2023-04-25T05:52:48.742Z,100.00
2023-04-25T05:55:25.052Z,100.00
2023-04-25T05:57:51.761Z,100.00
2023-04-25T06:00:20.017Z,100.00
2023-04-25T06:02:47.776Z,100.00
2023-04-25T06:05:14.864Z,99.68
2023-04-25T06:07:41.903Z,98.26
2023-04-25T06:10:09.087Z,96.26
2023-04-25T06:12:35.823Z,94.27
2023-04-25T06:15:08.141Z,93.57
2023-04-25T06:17:40.676Z,92.16
2023-04-25T06:20:07.929Z,90.82
2023-04-25T06:22:34.478Z,90.74
2023-04-25T06:25:02.008Z,89.76
2023-04-25T06:27:29.053Z,88.61
2023-04-25T06:29:56.456Z,87.66
2023-04-25T06:32:23.051Z,85.59
2023-04-25T06:34:49.728Z,85.33
2023-04-25T06:37:16.951Z,84.84
2023-04-25T06:39:43.578Z,84.07
2023-04-25T06:42:11.046Z,82.27
2023-04-25T06:44:41.527Z,82.12
2023-04-25T06:47:08.770Z,83.20
2023-04-25T06:49:35.634Z,81.19
2023-04-25T06:52:02.939Z,80.93
2023-04-25T06:54:30.741Z,79.21
2023-04-25T06:57:03.830Z,79.59
2023-04-25T06:59:32.228Z,79.50
2023-04-25T07:01:59.273Z,79.37
2023-04-25T07:04:26.987Z,78.32
2023-04-25T07:06:56.958Z,76.91
2023-04-25T07:09:29.255Z,74.41
2023-04-25T07:11:55.877Z,73.23
2023-04-25T07:14:22.480Z,72.25
2023-04-25T07:16:49.183Z,72.00
2023-04-25T07:19:16.041Z,69.32
2023-04-25T07:21:42.708Z,68.50
2023-04-25T07:24:09.405Z,67.63
2023-04-25T07:26:39.225Z,66.22
2023-04-25T07:29:23.985Z,66.09
2023-04-25T07:31:51.010Z,65.80
2023-04-25T07:34:17.755Z,65.71
2023-04-25T07:36:44.522Z,65.83
2023-04-25T07:39:11.851Z,64.50
2023-04-25T07:41:38.701Z,63.81
2023-04-25T07:44:05.898Z,62.66
2023-04-25T07:46:32.924Z,62.18
2023-04-25T07:49:00.053Z,62.07
2023-04-25T07:51:27.026Z,62.72
2023-04-25T07:53:53.929Z,63.19
2023-04-25T07:56:21.248Z,61.91
2023-04-25T07:58:48.227Z,62.00
2023-04-25T08:01:15.466Z,61.30
2023-04-25T08:03:58.017Z,60.95
2023-04-25T08:06:45.070Z,61.05
2023-04-25T08:09:19.064Z,61.32
2023-04-25T08:11:46.741Z,60.81
2023-04-25T08:14:15.412Z,61.42
2023-04-25T08:16:43.238Z,61.60
2023-04-25T08:19:11.205Z,61.07
2023-04-25T08:21:38.020Z,60.31
2023-04-25T08:24:06.997Z,60.14
2023-04-25T08:26:38.387Z,59.44
2023-04-25T08:29:06.603Z,57.74
2023-04-25T08:31:33.733Z,58.41
2023-04-25T08:34:01.686Z,57.79
2023-04-25T08:36:39.423Z,56.31
2023-04-25T08:39:17.195Z,55.81
2023-04-25T08:41:57.009Z,57.00
2023-04-25T08:44:23.558Z,55.99
2023-04-25T08:46:53.347Z,55.60
2023-04-25T08:49:27.863Z,56.22
2023-04-25T08:51:54.462Z,56.34
2023-04-25T08:54:34.188Z,56.97
2023-04-25T08:57:03.006Z,56.03
2023-04-25T08:59:29.656Z,54.55
2023-04-25T09:01:56.614Z,54.24
2023-04-25T09:04:23.685Z,54.35
2023-04-25T09:06:50.389Z,53.11
2023-04-25T09:09:17.711Z,51.78
2023-04-25T09:11:44.738Z,52.16
2023-04-25T09:14:15.642Z,51.86
2023-04-25T09:17:03.726Z,51.47
2023-04-25T09:19:42.004Z,51.66
2023-04-25T09:22:19.396Z,52.52
2023-04-25T09:24:51.062Z,53.04
2023-04-25T09:27:23.862Z,52.00
2023-04-25T09:30:02.398Z,51.31
2023-04-25T09:32:37.397Z,51.43
2023-04-25T09:35:05.610Z,51.77
2023-04-25T09:37:32.791Z,51.55
2023-04-25T09:40:06.885Z,51.56
2023-04-25T09:42:35.877Z,50.94
2023-04-25T09:45:03.327Z,51.16
2023-04-25T09:47:31.962Z,50.44
2023-04-25T09:50:00.550Z,50.92
2023-04-25T09:52:27.585Z,51.64
2023-04-25T09:55:00.359Z,50.41
2023-04-25T09:57:31.928Z,50.16
2023-04-25T09:59:58.733Z,51.44
2023-04-25T10:02:26.689Z,48.93
2023-04-25T10:04:56.801Z,49.20
2023-04-25T10:07:44.033Z,51.48
2023-04-25T10:10:16.266Z,49.74
2023-04-25T10:12:44.556Z,48.36
2023-04-25T10:15:11.505Z,47.11
2023-04-25T10:17:38.717Z,47.35
2023-04-25T10:20:11.836Z,47.77
2023-04-25T10:22:49.110Z,47.80
2023-04-25T10:25:15.873Z,46.37
2023-04-25T10:27:42.519Z,47.71
2023-04-25T10:30:12.282Z,46.50
2023-04-25T10:32:39.684Z,47.13
2023-04-25T10:35:16.775Z,46.72
2023-04-25T10:37:59.514Z,46.63
2023-04-25T10:40:26.702Z,46.87
2023-04-25T10:42:55.309Z,47.36
2023-04-25T10:45:21.986Z,47.24
2023-04-25T10:47:48.953Z,46.01
2023-04-25T10:50:17.189Z,46.41
2023-04-25T10:52:44.079Z,46.31
2023-04-25T10:55:10.817Z,47.93
2023-04-25T10:57:38.317Z,48.53
2023-04-25T11:00:11.961Z,47.12
2023-04-25T11:02:39.964Z,47.82
2023-04-25T11:05:07.757Z,47.37
2023-04-25T11:07:45.998Z,46.84
2023-04-25T11:10:14.737Z,46.96
2023-04-25T11:12:41.345Z,47.81
2023-04-25T11:15:08.526Z,46.46
2023-04-25T11:17:35.708Z,45.59
2023-04-25T11:20:02.456Z,44.66
2023-04-25T11:22:29.536Z,44.13
2023-04-25T11:24:56.110Z,44.82
2023-04-25T11:27:22.781Z,45.42
2023-04-25T11:29:49.523Z,44.13
2023-04-25T11:32:17.018Z,44.11
2023-04-25T11:34:44.839Z,44.08
2023-04-25T11:37:13.507Z,44.85
2023-04-25T11:39:43.523Z,44.67
2023-04-25T11:42:13.479Z,45.40
2023-04-25T11:44:41.734Z,44.23
2023-04-25T11:47:08.364Z,43.84
2023-04-25T11:49:36.270Z,44.49
2023-04-25T11:52:02.962Z,45.88
2023-04-25T11:54:29.525Z,45.28
2023-04-25T11:56:56.087Z,44.40
2023-04-25T11:59:26.652Z,42.92
2023-04-25T12:01:53.470Z,43.23
2023-04-25T12:04:21.557Z,44.05
2023-04-25T12:06:49.546Z,43.89
2023-04-25T12:09:18.873Z,43.53
2023-04-25T12:11:45.939Z,43.28
2023-04-25T12:14:13.089Z,43.54
2023-04-25T12:16:43.685Z,43.81
2023-04-25T12:19:11.040Z,43.30
2023-04-25T12:21:50.529Z,42.85
2023-04-25T12:24:26.767Z,43.10
2023-04-25T12:27:11.623Z,43.80
2023-04-25T12:29:49.246Z,44.40
2023-04-25T12:32:16.600Z,43.75
2023-04-25T12:34:43.522Z,42.80
2023-04-25T12:37:10.403Z,44.03
2023-04-25T12:39:37.009Z,44.50
2023-04-25T12:42:06.146Z,43.90
2023-04-25T12:44:35.004Z,43.63
2023-04-25T12:47:01.776Z,42.55
2023-04-25T12:49:28.456Z,40.94
2023-04-25T12:52:20.333Z,40.67
2023-04-25T12:54:47.079Z,39.75
2023-04-25T12:57:13.622Z,39.46
2023-04-25T12:59:40.241Z,38.40
2023-04-25T13:02:07.083Z,39.13
2023-04-25T13:04:37.135Z,39.07
2023-04-25T13:07:04.761Z,38.68
2023-04-25T13:09:31.464Z,38.90
2023-04-25T13:11:59.407Z,38.51
2023-04-25T13:14:26.312Z,38.35
2023-04-25T13:16:52.992Z,37.98
2023-04-25T13:19:23.478Z,38.48
2023-04-25T13:21:51.212Z,38.81
2023-04-25T13:24:17.935Z,38.13
2023-04-25T13:26:44.627Z,38.86
2023-04-25T13:29:11.170Z,39.08
2023-04-25T13:31:37.911Z,38.99
2023-04-25T13:34:04.761Z,39.80
2023-04-25T13:36:31.498Z,39.67
2023-04-25T13:38:58.518Z,39.58
2023-04-25T13:41:25.163Z,38.59
2023-04-25T13:43:52.554Z,37.35
2023-04-25T13:48:52.798Z,38.50
2023-04-25T13:51:22.493Z,39.10
2023-04-25T13:53:49.445Z,39.21
2023-04-25T13:56:16.433Z,38.94
2023-04-25T13:58:43.224Z,37.68
2023-04-25T14:01:09.895Z,37.65
2023-04-25T14:03:36.933Z,37.63
2023-04-25T14:06:03.795Z,37.78
2023-04-25T14:08:30.557Z,38.50
2023-04-25T14:10:57.195Z,38.72
2023-04-25T14:13:24.455Z,38.69
2023-04-25T14:15:51.613Z,38.47
2023-04-25T14:18:18.404Z,38.12
2023-04-25T14:20:45.298Z,38.30
2023-04-25T14:23:11.920Z,38.53
2023-04-25T14:25:38.972Z,38.61
2023-04-25T14:28:06.147Z,39.08
2023-04-25T14:30:32.876Z,38.30
2023-04-25T14:32:59.429Z,37.69
2023-04-25T14:35:26.215Z,38.36
2023-04-25T14:37:52.934Z,37.88
2023-04-25T14:40:23.291Z,38.28
2023-04-25T14:42:50.787Z,38.56
2023-04-25T14:45:17.870Z,38.74
2023-04-25T14:47:44.567Z,38.87
2023-04-25T14:50:11.508Z,38.99
2023-04-25T14:52:38.269Z,38.62
2023-04-25T14:55:06.460Z,38.65
2023-04-25T14:57:33.485Z,39.20
2023-04-25T15:00:00.169Z,40.12
2023-04-25T15:02:27.595Z,39.71
2023-04-25T15:04:54.675Z,39.51
2023-04-25T15:07:21.583Z,38.89
2023-04-25T15:09:49.054Z,39.30
2023-04-25T15:12:15.645Z,39.39
2023-04-25T15:14:42.260Z,39.31
2023-04-25T15:17:08.831Z,39.13
2023-04-25T15:19:35.558Z,38.98
2023-04-25T15:22:02.473Z,38.89
2023-04-25T15:24:29.112Z,38.48
2023-04-25T15:26:55.747Z,38.38
2023-04-25T15:29:22.676Z,37.91
2023-04-25T15:31:49.345Z,37.93
2023-04-25T15:34:16.007Z,37.90
2023-04-25T15:36:42.679Z,38.46
2023-04-25T15:39:09.262Z,38.55
2023-04-25T15:41:36.795Z,38.48
2023-04-25T15:44:03.384Z,38.25
2023-04-25T15:46:33.194Z,38.13
2023-04-25T15:48:59.978Z,38.50
2023-04-25T15:51:26.959Z,38.83
2023-04-25T15:53:53.786Z,38.88
2023-04-25T15:56:21.474Z,38.61
2023-04-25T15:58:48.293Z,38.91
2023-04-25T16:01:15.151Z,39.37
2023-04-25T16:03:42.111Z,39.02
2023-04-25T16:06:08.744Z,39.09
2023-04-25T16:08:36.180Z,39.70
2023-04-25T16:11:03.472Z,39.69
2023-04-25T16:13:30.251Z,39.70
2023-04-25T16:15:57.739Z,39.70
2023-04-25T16:18:24.556Z,40.08
2023-04-25T16:20:51.246Z,40.27
2023-04-25T16:23:18.570Z,40.59
2023-04-25T16:25:45.419Z,40.77
2023-04-25T16:28:12.014Z,41.15
2023-04-25T16:30:38.613Z,41.26
2023-04-25T16:33:05.279Z,41.28
2023-04-25T16:35:32.568Z,41.82
2023-04-25T16:37:59.200Z,41.86
2023-04-25T16:40:26.616Z,42.48
2023-04-25T16:42:53.323Z,42.64
2023-04-25T16:45:20.518Z,43.17
2023-04-25T16:47:47.158Z,44.15
2023-04-25T16:50:14.554Z,45.05
2023-04-25T16:52:42.468Z,45.39
2023-04-25T16:55:10.963Z,45.99
2023-04-25T16:57:37.723Z,45.08
2023-04-25T17:00:05.743Z,45.86
2023-04-25T17:02:32.795Z,45.82
2023-04-25T17:04:59.656Z,46.13
2023-04-25T17:07:26.789Z,46.16
2023-04-25T17:09:53.380Z,46.26
2023-04-25T17:12:21.472Z,47.41
2023-04-25T17:14:49.130Z,47.87
2023-04-25T17:17:15.675Z,47.52
2023-04-25T17:19:42.519Z,47.64
2023-04-25T17:22:09.115Z,48.54
2023-04-25T17:24:35.725Z,48.91
2023-04-25T17:27:02.434Z,49.27
2023-04-25T17:29:29.041Z,49.62
2023-04-25T17:31:57.141Z,49.55
2023-04-25T17:34:23.774Z,49.88
2023-04-25T17:36:50.376Z,49.53
2023-04-25T17:39:17.624Z,50.54
2023-04-25T17:41:44.837Z,51.91
2023-04-25T17:44:11.785Z,52.33
2023-04-25T17:46:38.533Z,52.64
2023-04-25T17:49:05.215Z,52.03
2023-04-25T17:51:31.823Z,53.28
2023-04-25T17:53:58.655Z,53.70
2023-04-25T17:56:27.548Z,53.85
2023-04-25T17:58:54.937Z,55.19
2023-04-25T18:01:21.917Z,55.18
2023-04-25T18:03:50.124Z,55.26
2023-04-25T18:06:17.279Z,56.02
2023-04-25T18:08:44.869Z,56.23
2023-04-25T18:11:12.033Z,56.63
2023-04-25T18:13:39.412Z,56.66
2023-04-25T18:16:06.745Z,56.70
2023-04-25T18:18:35.943Z,56.96
2023-04-25T18:21:05.405Z,57.24
2023-04-25T18:23:34.287Z,56.75
2023-04-25T18:26:04.763Z,57.66
2023-04-25T18:28:31.460Z,58.66
2023-04-25T18:30:58.078Z,58.33
2023-04-25T18:33:25.320Z,59.24
2023-04-25T18:38:34.979Z,59.70
2023-04-25T18:41:18.417Z,59.56
2023-04-25T18:43:50.815Z,59.81
2023-04-25T18:46:22.184Z,60.72
2023-04-25T18:48:49.644Z,60.09
2023-04-25T18:51:16.902Z,60.40
2023-04-25T18:53:43.476Z,61.47
2023-04-25T18:56:10.146Z,60.92
2023-04-25T18:58:36.964Z,61.50
2023-04-25T19:01:04.790Z,62.12
2023-04-25T19:03:31.887Z,61.80
2023-04-25T19:05:58.753Z,60.90
2023-04-25T19:08:26.824Z,60.49
2023-04-25T19:10:53.746Z,60.70
2023-04-25T19:13:20.675Z,62.26
2023-04-25T19:15:47.754Z,61.62
2023-04-25T19:18:18.051Z,61.49
2023-04-25T19:20:44.830Z,62.00
2023-04-25T19:23:11.552Z,62.11
2023-04-25T19:25:38.124Z,63.08
2023-04-25T19:28:05.042Z,63.23
2023-04-25T19:30:31.814Z,62.81
2023-04-25T19:32:58.490Z,63.72
2023-04-25T19:35:25.527Z,63.83
2023-04-25T19:37:52.380Z,64.22
2023-04-25T19:40:20.272Z,63.61
2023-04-25T19:42:47.332Z,64.51
2023-04-25T19:45:13.984Z,65.07
2023-04-25T19:47:41.097Z,65.38
2023-04-25T19:50:08.587Z,65.39
2023-04-25T19:52:35.797Z,65.74
2023-04-25T19:55:04.921Z,65.91
2023-04-25T19:57:35.054Z,66.18
2023-04-25T20:00:02.011Z,66.17
2023-04-25T20:02:38.943Z,67.10
2023-04-25T20:05:06.138Z,67.26
2023-04-25T20:07:33.029Z,66.25
2023-04-25T20:10:01.609Z,66.73
2023-04-25T20:12:28.171Z,67.01
2023-04-25T20:14:54.699Z,68.36
2023-04-25T20:17:21.395Z,69.06
2023-04-25T20:19:47.923Z,68.74
2023-04-25T20:22:14.475Z,69.60
2023-04-25T20:24:41.024Z,70.02
2023-04-25T20:27:07.691Z,71.03
2023-04-25T20:29:34.712Z,72.23
2023-04-25T20:32:03.202Z,71.81
2023-04-25T20:34:31.640Z,72.58
2023-04-25T20:36:58.227Z,73.48
2023-04-25T20:39:25.039Z,74.39
2023-04-25T20:41:51.684Z,73.77
2023-04-25T20:44:20.595Z,75.45
2023-04-25T20:46:48.033Z,75.58
2023-04-25T20:49:15.310Z,75.27
2023-04-25T20:51:42.286Z,76.41
2023-04-25T20:54:09.709Z,77.58
2023-04-25T20:56:37.837Z,76.61
2023-04-25T20:59:04.717Z,76.10
2023-04-25T21:01:31.332Z,77.08
2023-04-25T21:03:58.405Z,78.19
2023-04-25T21:06:25.523Z,79.35
2023-04-25T21:08:52.461Z,79.44
2023-04-25T21:11:19.668Z,79.57
2023-04-25T21:13:46.523Z,80.25
2023-04-25T21:16:13.183Z,81.12
2023-04-25T21:18:39.808Z,80.83
2023-04-25T21:21:06.496Z,81.58
2023-04-25T21:23:33.329Z,82.23
2023-04-25T21:25:59.922Z,82.57
2023-04-25T21:28:26.575Z,82.40
2023-04-25T21:30:53.279Z,83.94
2023-04-25T21:33:19.967Z,84.96
2023-04-25T21:35:46.512Z,85.25
2023-04-25T21:38:13.120Z,85.65
2023-04-25T21:40:39.958Z,86.16
2023-04-25T21:43:06.537Z,87.29
2023-04-25T21:45:33.223Z,88.04
2023-04-25T21:48:00.049Z,88.01
2023-04-25T21:50:27.511Z,88.53
2023-04-25T21:52:58.802Z,88.97
2023-04-25T21:55:26.646Z,89.33
2023-04-25T21:57:53.460Z,90.75
2023-04-25T22:00:21.366Z,90.26
2023-04-25T22:02:48.489Z,90.40
2023-04-25T22:05:15.446Z,90.52
2023-04-25T22:07:42.269Z,91.37
2023-04-25T22:10:09.198Z,92.18
2023-04-25T22:12:36.585Z,93.10
2023-04-25T22:15:04.174Z,93.58
2023-04-25T22:17:31.277Z,94.27
2023-04-25T22:19:58.127Z,94.68
2023-04-25T22:22:24.726Z,96.17
2023-04-25T22:24:51.358Z,96.93
2023-04-25T22:27:18.507Z,97.18
2023-04-25T22:29:45.059Z,97.15
2023-04-25T22:32:11.715Z,97.63
2023-04-25T22:34:38.450Z,97.23
2023-04-25T22:37:04.996Z,98.22
2023-04-25T22:39:31.552Z,98.18
2023-04-25T22:41:58.430Z,99.23
2023-04-25T22:44:25.100Z,99.79
2023-04-25T22:46:51.637Z,99.98
2023-04-25T22:49:18.212Z,100.00
2023-04-25T22:51:44.957Z,100.00
2023-04-25T22:54:11.548Z,100.00
2023-04-25T22:56:38.177Z,100.00
2023-04-25T22:59:04.835Z,100.00
2023-04-25T23:01:31.776Z,100.00
2023-04-25T23:03:58.783Z,100.00
2023-04-25T23:06:26.467Z,100.00
2023-04-25T23:08:53.411Z,100.00
2023-04-25T23:11:20.501Z,100.00
2023-04-25T23:13:47.416Z,100.00
2023-04-25T23:16:13.973Z,100.00
2023-04-25T23:18:41.048Z,100.00
2023-04-25T23:21:09.179Z,100.00
2023-04-25T23:23:36.407Z,100.00
2023-04-25T23:26:06.796Z,100.00
2023-04-25T23:28:33.351Z,100.00
2023-04-25T23:31:04.002Z,100.00
2023-04-25T23:33:30.677Z,100.00
2023-04-25T23:35:57.297Z,100.00
2023-04-25T23:38:23.912Z,100.00
2023-04-25T23:40:50.443Z,100.00
2023-04-25T23:43:17.081Z,100.00
2023-04-25T23:45:44.898Z,100.00
2023-04-25T23:48:11.715Z,100.00
2023-04-25T23:50:38.293Z,100.00
2023-04-25T23:53:04.934Z,100.00
2023-04-25T23:55:31.865Z,100.00
2023-04-25T23:57:58.420Z,100.00
